createdAt,value
2024-03-16T00:01:36.914Z,100510.97
2024-03-16T00:06:17.876Z,100514.28
2024-03-16T00:10:55.932Z,100501.50
2024-03-16T00:15:34.880Z,100516.16
2024-03-16T00:20:14.887Z,100523.28
2024-03-16T00:24:55.881Z,100507.50
2024-03-16T00:29:33.863Z,100511.06
2024-03-16T00:34:12.928Z,100511.06
2024-03-16T00:38:56.848Z,100514.28
2024-03-16T00:43:37.889Z,100520.38
2024-03-16T00:48:15.898Z,100512.56
2024-03-16T00:52:53.838Z,100519.09
2024-03-16T00:57:31.980Z,100515.56
2024-03-16T01:02:13.861Z,100518.53
2024-03-16T01:06:51.869Z,100532.03
2024-03-16T01:11:29.911Z,100523.78
2024-03-16T01:16:08.937Z,100533.84
2024-03-16T01:20:49.874Z,100527.94
2024-03-16T01:25:27.845Z,100528.75
2024-03-16T01:30:05.852Z,100520.91
2024-03-16T01:34:43.866Z,100525.63
2024-03-16T01:39:24.870Z,100527.25
2024-03-16T01:44:02.869Z,100535.09
2024-03-16T01:48:40.869Z,100537.47
2024-03-16T01:53:19.878Z,100532.88
2024-03-16T01:58:00.865Z,100530.72
2024-03-16T02:02:49.856Z,100539.47
2024-03-16T02:07:27.868Z,100529.66
2024-03-16T02:12:05.874Z,100539.63
2024-03-16T02:16:47.840Z,100538.56
2024-03-16T02:21:29.866Z,100542.75
2024-03-16T02:26:07.887Z,100548.19
2024-03-16T02:30:39.883Z,100548.69
2024-03-16T02:35:17.856Z,100558.19
2024-03-16T02:39:59.899Z,100561.28
2024-03-16T02:44:37.900Z,100565.22
2024-03-16T02:49:15.876Z,100566.00
2024-03-16T02:53:53.831Z,100565.84
2024-03-16T02:58:34.848Z,100565.06
2024-03-16T03:03:14.853Z,100573.16
2024-03-16T03:07:52.829Z,100575.28
2024-03-16T03:12:31.849Z,100577.75
2024-03-16T03:17:12.846Z,100587.81
2024-03-16T03:21:50.847Z,100594.00
2024-03-16T03:26:31.635Z,100592.34
2024-03-16T03:31:10.912Z,100598.63
2024-03-16T03:35:51.865Z,100600.84
2024-03-16T03:40:29.848Z,100605.69
2024-03-16T03:45:18.863Z,100609.13
2024-03-16T03:50:00.860Z,100618.69
2024-03-16T03:54:41.822Z,100618.47
2024-03-16T03:59:19.852Z,100618.38
2024-03-16T04:03:57.878Z,100640.63
2024-03-16T04:08:35.829Z,100643.13
2024-03-16T04:13:18.835Z,100658.75
2024-03-16T04:17:56.855Z,100671.03
2024-03-16T04:22:34.873Z,100683.09
2024-03-16T04:27:12.835Z,100692.22
2024-03-16T04:31:53.844Z,100708.19
2024-03-16T04:36:31.855Z,100720.00
2024-03-16T04:41:10.849Z,100736.25
2024-03-16T04:45:48.945Z,100752.97
2024-03-16T04:50:29.878Z,100760.09
2024-03-16T04:55:07.997Z,100770.84
2024-03-16T04:59:46.844Z,100776.53
2024-03-16T05:04:24.817Z,100787.75
2024-03-16T05:09:05.837Z,100809.69
2024-03-16T05:13:43.800Z,100815.50
2024-03-16T05:18:22.819Z,100827.66
2024-03-16T05:23:00.857Z,100837.94
2024-03-16T05:27:42.834Z,100846.78
2024-03-16T05:32:21.834Z,100856.16
2024-03-16T05:36:59.829Z,100863.47
2024-03-16T05:41:37.896Z,100873.25
2024-03-16T05:46:18.853Z,100882.09
2024-03-16T05:50:56.829Z,100885.81
2024-03-16T05:55:34.844Z,100890.22
2024-03-16T06:00:20.894Z,100902.03
2024-03-16T06:05:02.830Z,100927.09
2024-03-16T06:09:40.852Z,100938.59
2024-03-16T06:14:19.828Z,100950.06
2024-03-16T06:18:57.904Z,100967.13
2024-03-16T06:23:38.844Z,100982.22
2024-03-16T06:28:16.903Z,100990.56
2024-03-16T06:33:13.853Z,101008.13
2024-03-16T06:37:51.810Z,101023.22
2024-03-16T06:42:33.868Z,101028.28
2024-03-16T06:47:11.820Z,101045.69
2024-03-16T06:51:49.821Z,101059.50
2024-03-16T06:56:27.811Z,101074.31
2024-03-16T07:01:10.914Z,101080.56
2024-03-16T07:05:48.833Z,101092.63
2024-03-16T07:10:26.891Z,101109.91
2024-03-16T07:15:04.808Z,101128.22
2024-03-16T07:19:45.827Z,101144.66
2024-03-16T07:24:23.808Z,101155.03
2024-03-16T07:29:02.788Z,101182.13
2024-03-16T07:33:42.817Z,101184.38
2024-03-16T07:38:23.830Z,101197.94
2024-03-16T07:43:01.847Z,101210.50
2024-03-16T07:47:39.815Z,101218.41
2024-03-16T07:52:19.866Z,101227.13
2024-03-16T07:57:00.801Z,101257.94
2024-03-16T08:01:38.865Z,101257.97
2024-03-16T08:06:17.813Z,101257.97
2024-03-16T08:10:55.837Z,101274.00
2024-03-16T08:15:36.817Z,101286.69
2024-03-16T08:20:17.811Z,101287.31
2024-03-16T08:24:55.859Z,101296.09
2024-03-16T08:29:34.813Z,101305.47
2024-03-16T08:34:16.832Z,101322.53
2024-03-16T08:38:54.805Z,101321.69
2024-03-16T08:43:32.884Z,101331.50
2024-03-16T08:48:10.848Z,101332.38
2024-03-16T08:52:52.819Z,101344.84
2024-03-16T08:57:30.970Z,101348.41
2024-03-16T09:02:11.859Z,101362.34
2024-03-16T09:06:49.839Z,101376.69
2024-03-16T09:11:30.852Z,101386.03
2024-03-16T09:16:08.856Z,101397.09
2024-03-16T09:20:51.805Z,101399.81
2024-03-16T09:25:30.804Z,101396.66
2024-03-16T09:30:13.053Z,101408.13
2024-03-16T09:34:50.814Z,101410.63
2024-03-16T09:39:34.839Z,101418.16
